Terminal Aerodrome Forecast
Issued by NWS

Home | Current Version | Previous Version | Text Only | Print | Product List | Glossary On
Versions: 1 2 3 4 5 6 7 8 9 10 11 12 13 14 15 16
000
FTUS43 KLSX 121100
TAFCPS
TAF
KCPS 121120Z 1212/1312 VRB03KT P6SM VCSH BKN100
     FM121500 22007KT P6SM SCT150
     FM130100 18010KT P6SM BKN150=

USA.gov is the U.S. government's official web portal to all federal, state and local government web resources and services.